Time,TemperatureF,DewpointF,PressureIn,WindDirection,WindDirectionDegrees,WindSpeedMPH,WindSpeedGustMPH,Humidity,HourlyPrecipIn,Conditions,Clouds,dailyrainin,SoftwareType,DateUTC
2013-11-13 00:04:00,42.6,39.0,30.29,SSW,202,0.0,0.0,87,0.00,,,0.00,LWC V1.12 B30,2013-11-13 08:04:00,
2013-11-13 00:10:00,42.6,39.0,30.28,SSW,202,0.0,0.0,87,0.00,,,0.00,LWC V1.12 B30,2013-11-13 08:10:00,
2013-11-13 00:15:00,42.6,39.0,30.28,SSW,202,0.0,0.0,87,0.00,,,0.00,LWC V1.12 B30,2013-11-13 08:15:00,
2013-11-13 00:20:00,42.6,39.0,30.28,SSW,202,0.0,0.0,87,0.00,,,0.00,LWC V1.12 B30,2013-11-13 08:20:00,
2013-11-13 00:25:00,42.6,39.0,30.28,SSW,202,0.0,0.0,87,0.00,,,0.00,LWC V1.12 B30,2013-11-13 08:25:00,
2013-11-13 00:30:00,42.6,39.0,30.28,SSW,202,0.0,0.0,87,0.00,,,0.00,LWC V1.12 B30,2013-11-13 08:30:00,
2013-11-13 00:35:00,42.6,39.0,30.28,SSW,202,0.0,0.0,87,0.00,,,0.00,LWC V1.12 B30,2013-11-13 08:35:00,
2013-11-13 00:40:00,42.6,39.0,30.28,SSW,202,0.0,0.0,87,0.00,,,0.00,LWC V1.12 B30,2013-11-13 08:40:00,
2013-11-13 00:45:00,42.6,39.0,30.28,South,180,0.0,0.0,87,0.00,,,0.00,LWC V1.12 B30,2013-11-13 08:45:00,
2013-11-13 00:50:00,42.6,39.0,30.28,South,180,0.0,0.0,87,0.00,,,0.00,LWC V1.12 B30,2013-11-13 08:50:00,
2013-11-13 00:55:00,42.6,39.0,30.28,SE,135,0.0,0.0,87,0.00,,,0.00,LWC V1.12 B30,2013-11-13 08:55:00,
2013-11-13 01:01:00,42.6,39.0,30.28,SE,135,0.0,0.0,87,0.00,,,0.00,LWC V1.12 B30,2013-11-13 09:01:00,
2013-11-13 01:06:00,42.6,39.0,30.28,SE,135,0.0,0.0,87,0.00,,,0.00,LWC V1.12 B30,2013-11-13 09:06:00,
2013-11-13 01:11:00,42.6,39.0,30.28,SE,135,0.0,0.0,87,0.00,,,0.00,LWC V1.12 B30,2013-11-13 09:11:00,
2013-11-13 01:16:00,42.6,39.0,30.28,SE,135,0.0,0.0,87,0.00,,,0.00,LWC V1.12 B30,2013-11-13 09:16:00,
2013-11-13 01:21:00,42.6,39.0,30.28,SE,135,0.0,0.0,87,0.00,,,0.00,LWC V1.12 B30,2013-11-13 09:21:00,
2013-11-13 01:26:00,42.6,39.0,30.28,SE,135,0.0,0.0,87,0.00,,,0.00,LWC V1.12 B30,2013-11-13 09:26:00,
2013-11-13 01:31:00,42.6,39.0,30.28,SE,135,0.0,0.0,87,0.00,,,0.00,LWC V1.12 B30,2013-11-13 09:31:00,
2013-11-13 01:36:00,42.6,39.0,30.28,SE,135,0.0,0.0,87,0.00,,,0.00,LWC V1.12 B30,2013-11-13 09:36:00,
2013-11-13 01:41:00,42.6,39.0,30.28,SE,135,0.0,0.0,87,0.00,,,0.00,LWC V1.12 B30,2013-11-13 09:41:00,
2013-11-13 01:46:00,42.6,39.0,30.27,SE,135,0.0,0.0,87,0.00,,,0.00,LWC V1.12 B30,2013-11-13 09:46:00,
2013-11-13 01:51:00,42.6,39.0,30.27,SE,135,0.0,0.0,87,0.00,,,0.00,LWC V1.12 B30,2013-11-13 09:51:00,
2013-11-13 01:56:00,42.6,39.0,30.27,SE,135,0.0,0.0,87,0.00,,,0.00,LWC V1.12 B30,2013-11-13 09:56:00,
2013-11-13 02:01:00,42.6,39.0,30.27,SE,135,0.0,0.0,87,0.00,,,0.00,LWC V1.12 B30,2013-11-13 10:01:00,
2013-11-13 02:06:00,42.6,39.0,30.27,SE,135,0.0,0.0,87,0.00,,,0.00,LWC V1.12 B30,2013-11-13 10:06:00,
2013-11-13 02:11:00,42.6,39.0,30.28,SE,135,0.0,0.0,87,0.00,,,0.00,LWC V1.12 B30,2013-11-13 10:11:00,
2013-11-13 02:17:00,42.4,38.8,30.27,SE,135,0.0,0.0,87,0.00,,,0.00,LWC V1.12 B30,2013-11-13 10:17:00,
2013-11-13 02:22:00,42.4,38.8,30.27,SE,135,0.0,0.0,87,0.00,,,0.00,LWC V1.12 B30,2013-11-13 10:22:00,
2013-11-13 02:27:00,42.4,38.8,30.27,SE,135,0.0,0.0,87,0.00,,,0.00,LWC V1.12 B30,2013-11-13 10:27:00,
2013-11-13 02:32:00,42.6,39.3,30.27,SE,135,0.0,0.0,88,0.00,,,0.00,LWC V1.12 B30,2013-11-13 10:32:00,
2013-11-13 02:37:00,42.6,39.3,30.27,SE,135,0.0,0.0,88,0.00,,,0.00,LWC V1.12 B30,2013-11-13 10:37:00,
2013-11-13 02:42:00,42.4,39.1,30.27,SE,135,0.0,0.0,88,0.00,,,0.00,LWC V1.12 B30,2013-11-13 10:42:00,
2013-11-13 02:47:00,42.4,39.1,30.27,SE,135,0.0,0.0,88,0.00,,,0.00,LWC V1.12 B30,2013-11-13 10:47:00,
2013-11-13 02:52:00,42.6,39.3,30.27,SE,135,0.0,0.0,88,0.00,,,0.00,LWC V1.12 B30,2013-11-13 10:52:00,
2013-11-13 02:57:00,42.6,39.1,30.27,SE,135,0.0,0.0,88,0.00,,,0.00,LWC V1.12 B30,2013-11-13 10:57:00,
2013-11-13 03:02:00,42.4,39.1,30.26,SE,135,0.0,0.0,88,0.00,,,0.00,LWC V1.12 B30,2013-11-13 11:02:00,
2013-11-13 03:07:00,42.4,39.1,30.26,East,90,0.0,0.0,88,0.00,,,0.00,LWC V1.12 B30,2013-11-13 11:07:00,
2013-11-13 03:12:00,42.4,39.1,30.26,SE,135,0.0,2.0,88,0.00,,,0.00,LWC V1.12 B30,2013-11-13 11:12:00,
2013-11-13 03:17:00,42.4,39.1,30.25,SE,135,0.0,0.0,88,0.00,,,0.00,LWC V1.12 B30,2013-11-13 11:17:00,
2013-11-13 03:22:00,42.4,39.1,30.25,SE,135,1.3,1.3,88,0.02,,,0.00,LWC V1.12 B30,2013-11-13 11:22:00,
2013-11-13 03:27:00,42.4,39.1,30.25,SE,135,0.0,0.0,88,0.02,,,0.00,LWC V1.12 B30,2013-11-13 11:27:00,
2013-11-13 03:33:00,42.6,39.3,30.25,ESE,112,0.0,2.2,88,0.02,,,0.02,LWC V1.12 B30,2013-11-13 11:33:00,
2013-11-13 03:38:00,42.6,39.3,30.25,SE,135,0.0,0.0,88,0.02,,,0.02,LWC V1.12 B30,2013-11-13 11:38:00,
2013-11-13 03:43:00,42.6,39.3,30.25,SE,135,0.0,0.0,88,0.02,,,0.02,LWC V1.12 B30,2013-11-13 11:43:00,
2013-11-13 03:48:00,42.6,39.3,30.25,SE,135,0.0,0.0,88,0.02,,,0.02,LWC V1.12 B30,2013-11-13 11:48:00,
2013-11-13 03:53:00,42.6,39.3,30.25,SSE,157,0.0,2.0,88,0.02,,,0.02,LWC V1.12 B30,2013-11-13 11:53:00,
2013-11-13 03:58:00,42.6,39.3,30.25,SE,135,0.0,1.1,88,0.02,,,0.02,LWC V1.12 B30,2013-11-13 11:58:00,
2013-11-13 04:03:00,42.6,39.3,30.25,SE,135,0.0,0.0,88,0.02,,,0.02,LWC V1.12 B30,2013-11-13 12:03:00,
2013-11-13 04:08:00,42.8,39.5,30.25,SE,135,0.0,0.0,88,0.02,,,0.02,LWC V1.12 B30,2013-11-13 12:08:00,
2013-11-13 04:13:00,43.0,39.7,30.24,SE,135,0.0,0.0,88,0.02,,,0.02,LWC V1.12 B30,2013-11-13 12:13:00,
2013-11-13 04:19:00,43.0,39.7,30.25,SE,135,0.0,0.0,88,0.00,,,0.02,LWC V1.12 B30,2013-11-13 12:19:00,
2013-11-13 04:24:00,43.0,39.7,30.25,SSE,157,0.0,2.0,88,0.00,,,0.02,LWC V1.12 B30,2013-11-13 12:24:00,
2013-11-13 04:29:00,43.0,39.7,30.25,SE,135,1.3,2.2,88,0.00,,,0.02,LWC V1.12 B30,2013-11-13 12:29:00,
2013-11-13 04:34:00,43.0,39.7,30.25,SE,135,0.0,0.0,88,0.00,,,0.02,LWC V1.12 B30,2013-11-13 12:34:00,
2013-11-13 04:39:00,43.0,39.7,30.26,SSW,202,0.0,0.0,88,0.00,,,0.02,LWC V1.12 B30,2013-11-13 12:39:00,
2013-11-13 04:44:00,43.0,39.7,30.26,SSW,202,0.0,0.0,88,0.00,,,0.02,LWC V1.12 B30,2013-11-13 12:44:00,
2013-11-13 04:49:00,43.0,39.7,30.25,SE,135,0.0,1.3,88,0.00,,,0.02,LWC V1.12 B30,2013-11-13 12:49:00,
2013-11-13 04:54:00,43.0,39.7,30.25,SE,135,0.0,0.0,88,0.00,,,0.02,LWC V1.12 B30,2013-11-13 12:54:00,
2013-11-13 04:59:00,43.0,39.7,30.25,SE,135,0.0,0.0,88,0.00,,,0.02,LWC V1.12 B30,2013-11-13 12:59:00,
2013-11-13 05:04:00,43.0,39.7,30.25,SE,135,0.0,0.0,88,0.00,,,0.02,LWC V1.12 B30,2013-11-13 13:04:00,
2013-11-13 05:10:00,43.0,39.7,30.26,SE,135,0.0,0.0,88,0.00,,,0.02,LWC V1.12 B30,2013-11-13 13:10:00,
2013-11-13 05:15:00,43.0,39.7,30.26,SE,135,0.0,0.0,88,0.00,,,0.02,LWC V1.12 B30,2013-11-13 13:15:00,
2013-11-13 05:20:00,43.0,39.7,30.26,SE,135,0.0,2.2,88,0.00,,,0.02,LWC V1.12 B30,2013-11-13 13:20:00,
2013-11-13 05:25:00,43.0,39.7,30.26,SE,135,0.0,0.0,88,0.00,,,0.02,LWC V1.12 B30,2013-11-13 13:25:00,
2013-11-13 05:31:00,43.0,39.7,30.26,SE,135,0.0,0.0,88,0.00,,,0.02,LWC V1.12 B30,2013-11-13 13:31:00,
2013-11-13 05:36:00,43.0,39.7,30.27,SE,135,0.0,0.0,88,0.00,,,0.02,LWC V1.12 B30,2013-11-13 13:36:00,
2013-11-13 05:41:00,43.0,39.7,30.27,South,180,0.0,0.0,88,0.00,,,0.02,LWC V1.12 B30,2013-11-13 13:41:00,
2013-11-13 05:46:00,43.0,40.0,30.27,SSW,202,0.0,2.0,89,0.00,,,0.02,LWC V1.12 B30,2013-11-13 13:46:00,
2013-11-13 05:51:00,43.0,40.0,30.27,SSW,202,3.1,3.8,89,0.00,,,0.02,LWC V1.12 B30,2013-11-13 13:51:00,
2013-11-13 05:57:00,43.0,40.0,30.27,South,180,0.0,0.0,89,0.00,,,0.02,LWC V1.12 B30,2013-11-13 13:57:00,
2013-11-13 06:02:00,43.0,40.0,30.27,SSW,202,0.0,0.0,89,0.00,,,0.02,LWC V1.12 B30,2013-11-13 14:02:00,
2013-11-13 06:07:00,43.2,40.2,30.27,SE,135,0.0,0.0,89,0.00,,,0.02,LWC V1.12 B30,2013-11-13 14:07:00,
2013-11-13 06:12:00,43.2,40.2,30.27,SSW,202,3.6,3.6,89,0.00,,,0.02,LWC V1.12 B30,2013-11-13 14:12:00,
2013-11-13 06:17:00,43.2,40.2,30.27,SE,135,0.0,1.6,89,0.00,,,0.02,LWC V1.12 B30,2013-11-13 14:17:00,
2013-11-13 06:22:00,43.2,40.2,30.27,SSE,157,0.0,0.0,89,0.00,,,0.02,LWC V1.12 B30,2013-11-13 14:22:00,
2013-11-13 06:27:00,43.2,40.2,30.27,ESE,112,2.0,3.8,89,0.00,,,0.02,LWC V1.12 B30,2013-11-13 14:27:00,
2013-11-13 06:32:00,43.2,40.2,30.27,East,90,3.6,3.6,89,0.00,,,0.02,LWC V1.12 B30,2013-11-13 14:32:00,
2013-11-13 06:37:00,43.2,40.2,30.27,SSE,157,2.9,4.2,89,0.00,,,0.02,LWC V1.12 B30,2013-11-13 14:37:00,
2013-11-13 06:42:00,43.2,40.2,30.27,SE,135,0.0,2.2,89,0.00,,,0.02,LWC V1.12 B30,2013-11-13 14:42:00,
2013-11-13 06:47:00,43.2,40.2,30.28,SSE,157,0.0,2.2,89,0.00,,,0.02,LWC V1.12 B30,2013-11-13 14:47:00,
2013-11-13 06:52:00,43.2,40.2,30.28,SE,135,0.7,2.5,89,0.00,,,0.02,LWC V1.12 B30,2013-11-13 14:52:00,
2013-11-13 06:57:00,43.2,40.2,30.29,SE,135,0.0,0.9,89,0.00,,,0.02,LWC V1.12 B30,2013-11-13 14:57:00,
2013-11-13 07:02:00,43.2,40.2,30.29,SSE,157,0.0,2.7,89,0.00,,,0.02,LWC V1.12 B30,2013-11-13 15:02:00,
2013-11-13 07:07:00,43.2,40.2,30.29,ESE,112,2.5,2.9,89,0.00,,,0.02,LWC V1.12 B30,2013-11-13 15:07:00,
2013-11-13 07:12:00,43.2,40.2,30.29,South,180,4.9,5.1,89,0.00,,,0.02,LWC V1.12 B30,2013-11-13 15:12:00,
2013-11-13 07:17:00,43.2,40.2,30.29,SE,135,2.9,4.5,89,0.00,,,0.02,LWC V1.12 B30,2013-11-13 15:17:00,
2013-11-13 07:22:00,43.3,40.3,30.29,SSE,157,3.4,3.8,89,0.00,,,0.02,LWC V1.12 B30,2013-11-13 15:22:00,
2013-11-13 07:27:00,43.3,40.3,30.28,SSE,157,1.6,4.0,89,0.00,,,0.02,LWC V1.12 B30,2013-11-13 15:27:00,
2013-11-13 07:32:00,43.2,40.2,30.28,SE,135,7.4,7.6,89,0.00,,,0.02,LWC V1.12 B30,2013-11-13 15:32:00,
2013-11-13 07:37:00,43.3,40.3,30.28,South,180,0.7,4.7,89,0.00,,,0.02,LWC V1.12 B30,2013-11-13 15:37:00,
2013-11-13 07:42:00,43.2,40.2,30.28,SE,135,3.4,6.9,89,0.00,,,0.02,LWC V1.12 B30,2013-11-13 15:42:00,
2013-11-13 07:48:00,43.3,40.3,30.29,South,180,0.9,1.8,89,0.00,,,0.02,LWC V1.12 B30,2013-11-13 15:48:00,
2013-11-13 07:53:00,43.3,40.3,30.29,SSW,202,3.1,3.4,89,0.00,,,0.02,LWC V1.12 B30,2013-11-13 15:53:00,
2013-11-13 07:58:00,43.3,40.3,30.30,SSW,202,4.0,8.1,89,0.00,,,0.02,LWC V1.12 B30,2013-11-13 15:58:00,
2013-11-13 08:03:00,43.5,40.5,30.29,SE,135,4.7,4.7,89,0.00,,,0.02,LWC V1.12 B30,2013-11-13 16:03:00,
2013-11-13 08:08:00,43.5,40.5,30.29,South,180,1.3,4.0,89,0.00,,,0.02,LWC V1.12 B30,2013-11-13 16:08:00,
2013-11-13 08:13:00,43.5,40.5,30.29,South,180,2.7,2.7,89,0.00,,,0.02,LWC V1.12 B30,2013-11-13 16:13:00,
2013-11-13 08:18:00,43.5,40.5,30.29,South,180,3.6,4.9,89,0.00,,,0.02,LWC V1.12 B30,2013-11-13 16:18:00,
2013-11-13 08:23:00,43.7,40.7,30.29,SSW,202,2.0,3.4,89,0.00,,,0.02,LWC V1.12 B30,2013-11-13 16:23:00,
2013-11-13 08:28:00,43.7,40.7,30.28,SSE,157,2.9,3.8,89,0.00,,,0.02,LWC V1.12 B30,2013-11-13 16:28:00,
2013-11-13 08:33:00,43.9,40.9,30.29,SSW,202,6.5,6.5,89,0.00,,,0.02,LWC V1.12 B30,2013-11-13 16:33:00,
2013-11-13 08:38:00,44.2,41.2,30.29,SSE,157,3.1,8.9,89,0.00,,,0.02,LWC V1.12 B30,2013-11-13 16:38:00,
2013-11-13 08:43:00,44.2,41.2,30.28,South,180,0.0,6.7,89,0.00,,,0.02,LWC V1.12 B30,2013-11-13 16:43:00,
2013-11-13 08:48:00,44.2,40.9,30.28,South,180,4.5,8.5,88,0.00,,,0.02,LWC V1.12 B30,2013-11-13 16:48:00,
2013-11-13 08:53:00,44.2,40.9,30.28,South,180,6.0,7.6,88,0.00,,,0.02,LWC V1.12 B30,2013-11-13 16:53:00,
2013-11-13 08:58:00,44.2,40.9,30.28,SSW,202,0.7,6.9,88,0.00,,,0.02,LWC V1.12 B30,2013-11-13 16:58:00,
2013-11-13 09:03:00,44.4,41.1,30.28,South,180,0.0,4.0,88,0.00,,,0.02,LWC V1.12 B30,2013-11-13 17:03:00,
2013-11-13 09:08:00,44.4,40.8,30.28,SSW,202,4.9,4.9,87,0.00,,,0.02,LWC V1.12 B30,2013-11-13 17:08:00,
2013-11-13 09:13:00,44.4,40.8,30.29,South,180,2.2,6.5,87,0.00,,,0.02,LWC V1.12 B30,2013-11-13 17:13:00,
2013-11-13 09:18:00,44.2,40.8,30.29,SSE,157,2.5,4.0,87,0.00,,,0.02,LWC V1.12 B30,2013-11-13 17:18:00,
2013-11-13 09:23:00,44.2,40.6,30.28,SSE,157,8.9,9.8,87,0.00,,,0.02,LWC V1.12 B30,2013-11-13 17:23:00,
2013-11-13 09:28:00,44.4,40.8,30.29,SSW,202,3.1,6.9,87,0.00,,,0.02,LWC V1.12 B30,2013-11-13 17:28:00,
2013-11-13 09:33:00,44.4,40.8,30.28,South,180,3.4,9.8,87,0.00,,,0.02,LWC V1.12 B30,2013-11-13 17:33:00,
2013-11-13 09:38:00,44.6,41.3,30.29,South,180,5.4,5.4,88,0.00,,,0.02,LWC V1.12 B30,2013-11-13 17:38:00,
2013-11-13 09:43:00,44.8,41.2,30.30,SSW,202,4.5,6.9,87,0.00,,,0.02,LWC V1.12 B30,2013-11-13 17:43:00,
2013-11-13 09:48:00,44.6,41.0,30.29,SSW,202,4.5,6.7,87,0.00,,,0.02,LWC V1.12 B30,2013-11-13 17:48:00,
2013-11-13 09:54:00,44.6,41.0,30.29,South,180,2.0,6.5,87,0.00,,,0.02,LWC V1.12 B30,2013-11-13 17:54:00,
2013-11-13 09:59:00,44.4,40.8,30.29,SSE,157,0.0,4.7,87,0.00,,,0.02,LWC V1.12 B30,2013-11-13 17:59:00,
2013-11-13 10:04:00,44.6,41.0,30.29,SE,135,3.4,4.7,87,0.00,,,0.02,LWC V1.12 B30,2013-11-13 18:04:00,
2013-11-13 10:09:00,44.6,41.0,30.29,ESE,112,2.7,5.4,87,0.00,,,0.02,LWC V1.12 B30,2013-11-13 18:09:00,
2013-11-13 10:14:00,44.6,41.0,30.30,SSE,157,4.5,9.4,87,0.00,,,0.02,LWC V1.12 B30,2013-11-13 18:14:00,
2013-11-13 10:19:00,44.4,40.5,30.30,South,180,7.6,9.8,86,0.00,,,0.02,LWC V1.12 B30,2013-11-13 18:19:00,
2013-11-13 10:24:00,44.4,40.5,30.30,South,180,4.2,6.3,86,0.00,,,0.02,LWC V1.12 B30,2013-11-13 18:24:00,
2013-11-13 10:29:00,44.4,40.5,30.30,South,180,3.6,6.7,86,0.00,,,0.02,LWC V1.12 B30,2013-11-13 18:29:00,
2013-11-13 10:34:00,44.4,40.5,30.30,South,180,1.8,7.4,86,0.00,,,0.02,LWC V1.12 B30,2013-11-13 18:34:00,
2013-11-13 10:39:00,44.4,40.5,30.30,SSW,202,4.5,5.6,86,0.00,,,0.02,LWC V1.12 B30,2013-11-13 18:39:00,
2013-11-13 10:44:00,44.2,40.3,30.29,SE,135,8.9,9.4,86,0.00,,,0.02,LWC V1.12 B30,2013-11-13 18:44:00,
2013-11-13 10:49:00,44.4,40.5,30.29,SE,135,3.6,7.4,86,0.00,,,0.02,LWC V1.12 B30,2013-11-13 18:49:00,
2013-11-13 10:54:00,44.4,40.5,30.30,South,180,4.0,6.0,86,0.00,,,0.02,LWC V1.12 B30,2013-11-13 18:54:00,
2013-11-13 10:59:00,44.6,40.4,30.29,SSE,157,2.5,9.2,85,0.00,,,0.02,LWC V1.12 B30,2013-11-13 18:59:00,
2013-11-13 11:05:00,44.6,40.4,30.30,SSW,202,4.5,5.1,85,0.00,,,0.02,LWC V1.12 B30,2013-11-13 19:05:00,
2013-11-13 11:10:00,44.4,40.2,30.30,SSW,202,3.4,6.7,85,0.00,,,0.02,LWC V1.12 B30,2013-11-13 19:10:00,
2013-11-13 11:15:00,44.2,40.0,30.30,SSW,202,8.3,8.3,85,0.00,,,0.02,LWC V1.12 B30,2013-11-13 19:15:00,
2013-11-13 11:20:00,44.1,39.8,30.29,South,180,7.8,7.8,85,0.00,,,0.02,LWC V1.12 B30,2013-11-13 19:20:00,
2013-11-13 11:25:00,43.9,39.7,30.29,SSW,202,4.2,8.7,85,0.00,,,0.02,LWC V1.12 B30,2013-11-13 19:25:00,
2013-11-13 11:30:00,43.9,39.7,30.30,SSW,202,0.0,1.8,85,0.00,,,0.02,LWC V1.12 B30,2013-11-13 19:30:00,
2013-11-13 11:35:00,43.9,39.7,30.30,SSW,202,7.6,7.6,85,0.00,,,0.02,LWC V1.12 B30,2013-11-13 19:35:00,
2013-11-13 11:40:00,43.9,39.7,30.30,SSE,157,6.0,7.2,85,0.00,,,0.02,LWC V1.12 B30,2013-11-13 19:40:00,
2013-11-13 11:45:00,43.5,39.3,30.29,South,180,1.1,5.4,85,0.00,,,0.02,LWC V1.12 B30,2013-11-13 19:45:00,
2013-11-13 11:50:00,43.7,39.5,30.29,SSW,202,4.5,4.5,85,0.00,,,0.02,LWC V1.12 B30,2013-11-13 19:50:00,
2013-11-13 11:55:00,43.7,39.5,30.28,South,180,3.4,6.9,85,0.00,,,0.02,LWC V1.12 B30,2013-11-13 19:55:00,
2013-11-13 12:00:00,43.9,39.7,30.28,SSW,202,5.8,9.4,85,0.00,,,0.02,LWC V1.12 B30,2013-11-13 20:00:00,
2013-11-13 12:05:00,43.9,39.3,30.28,SE,135,6.5,9.6,84,0.00,,,0.02,LWC V1.12 B30,2013-11-13 20:05:00,
2013-11-13 12:10:00,44.2,40.0,30.28,SE,135,3.8,9.4,85,0.00,,,0.02,LWC V1.12 B30,2013-11-13 20:10:00,
2013-11-13 12:15:00,44.2,39.7,30.28,SE,135,7.8,8.7,84,0.00,,,0.02,LWC V1.12 B30,2013-11-13 20:15:00,
2013-11-13 12:20:00,44.4,39.9,30.28,SSE,157,6.7,10.5,84,0.00,,,0.02,LWC V1.12 B30,2013-11-13 20:20:00,
2013-11-13 12:25:00,44.8,40.2,30.28,SSE,157,6.0,7.8,84,0.00,,,0.02,LWC V1.12 B30,2013-11-13 20:25:00,
2013-11-13 12:30:00,45.0,40.4,30.28,SSE,157,4.7,10.1,84,0.00,,,0.02,LWC V1.12 B30,2013-11-13 20:30:00,
2013-11-13 12:35:00,45.1,40.3,30.27,SSE,157,5.4,8.1,83,0.00,,,0.02,LWC V1.12 B30,2013-11-13 20:35:00,
2013-11-13 12:40:00,45.1,40.3,30.28,SSE,157,7.8,10.3,83,0.00,,,0.02,LWC V1.12 B30,2013-11-13 20:40:00,
2013-11-13 12:45:00,45.3,40.2,30.27,South,180,2.9,6.9,82,0.00,,,0.02,LWC V1.12 B30,2013-11-13 20:45:00,
2013-11-13 12:50:00,45.5,40.7,30.27,South,180,3.4,28.4,83,0.00,,,0.02,LWC V1.12 B30,2013-11-13 20:50:00,
2013-11-13 12:55:00,45.5,40.4,30.27,SSE,157,6.9,28.4,82,0.00,,,0.02,LWC V1.12 B30,2013-11-13 20:55:00,
2013-11-13 13:00:00,45.5,40.4,30.28,SE,135,10.5,11.2,82,0.00,,,0.02,LWC V1.12 B30,2013-11-13 21:00:00,
2013-11-13 13:05:00,45.3,40.2,30.28,SSE,157,6.9,10.3,82,0.00,,,0.02,LWC V1.12 B30,2013-11-13 21:05:00,
2013-11-13 13:10:00,45.1,40.0,30.27,ESE,112,5.6,7.8,82,0.00,,,0.02,LWC V1.12 B30,2013-11-13 21:10:00,
2013-11-13 13:16:00,45.1,40.0,30.27,SSE,157,5.1,8.9,82,0.00,,,0.02,LWC V1.12 B30,2013-11-13 21:16:00,
2013-11-13 13:22:00,45.1,40.0,30.28,South,180,4.2,8.3,82,0.00,,,0.02,LWC V1.12 B30,2013-11-13 21:22:00,
2013-11-13 13:27:00,45.1,40.0,30.27,SSE,157,7.4,8.5,82,0.00,,,0.02,LWC V1.12 B30,2013-11-13 21:27:00,
2013-11-13 13:32:00,45.1,39.7,30.27,SSE,157,10.5,10.5,81,0.00,,,0.02,LWC V1.12 B30,2013-11-13 21:32:00,
2013-11-13 13:37:00,45.1,39.7,30.27,South,180,4.2,10.1,81,0.00,,,0.02,LWC V1.12 B30,2013-11-13 21:37:00,
2013-11-13 13:42:00,45.1,39.7,30.27,SE,135,3.6,6.5,81,0.00,,,0.02,LWC V1.12 B30,2013-11-13 21:42:00,
2013-11-13 13:47:00,45.3,39.9,30.27,SSE,157,3.1,5.1,81,0.00,,,0.02,LWC V1.12 B30,2013-11-13 21:47:00,
2013-11-13 13:52:00,45.3,39.9,30.27,South,180,5.1,6.7,81,0.00,,,0.02,LWC V1.12 B30,2013-11-13 21:52:00,
2013-11-13 13:57:00,45.1,39.7,30.26,SSW,202,7.6,7.6,81,0.00,,,0.02,LWC V1.12 B30,2013-11-13 21:57:00,
2013-11-13 14:02:00,45.1,39.7,30.27,South,180,3.6,6.7,81,0.00,,,0.02,LWC V1.12 B30,2013-11-13 22:02:00,
2013-11-13 14:07:00,45.0,39.5,30.27,ESE,112,0.0,3.6,81,0.00,,,0.02,LWC V1.12 B30,2013-11-13 22:07:00,
2013-11-13 14:12:00,45.0,39.8,30.27,ESE,112,4.7,4.7,82,0.00,,,0.02,LWC V1.12 B30,2013-11-13 22:12:00,
2013-11-13 14:17:00,45.0,39.8,30.26,SE,135,0.0,4.7,82,0.00,,,0.02,LWC V1.12 B30,2013-11-13 22:17:00,
2013-11-13 14:23:00,45.0,39.8,30.27,SSE,157,4.7,7.6,82,0.00,,,0.02,LWC V1.12 B30,2013-11-13 22:23:00,
2013-11-13 14:28:00,45.0,39.8,30.26,SSE,157,5.4,6.3,82,0.00,,,0.02,LWC V1.12 B30,2013-11-13 22:28:00,
2013-11-13 14:33:00,45.0,39.8,30.26,SSE,157,4.0,6.0,82,0.00,,,0.02,LWC V1.12 B30,2013-11-13 22:33:00,
2013-11-13 14:38:00,44.8,39.3,30.26,SSW,202,3.4,7.4,81,0.00,,,0.02,LWC V1.12 B30,2013-11-13 22:38:00,
2013-11-13 14:43:00,44.8,39.3,30.26,SSE,157,4.9,9.2,81,0.00,,,0.02,LWC V1.12 B30,2013-11-13 22:43:00,
2013-11-13 14:48:00,44.8,39.3,30.26,SSW,202,6.9,11.2,81,0.00,,,0.02,LWC V1.12 B30,2013-11-13 22:48:00,
2013-11-13 14:53:00,44.4,38.7,30.26,South,180,2.5,4.7,80,0.00,,,0.02,LWC V1.12 B30,2013-11-13 22:53:00,
2013-11-13 14:58:00,44.4,39.0,30.26,SE,135,5.4,6.5,81,0.00,,,0.02,LWC V1.12 B30,2013-11-13 22:58:00,
2013-11-13 15:03:00,44.2,38.8,30.26,ESE,112,2.5,3.4,81,0.00,,,0.02,LWC V1.12 B30,2013-11-13 23:03:00,
2013-11-13 15:08:00,44.1,38.6,30.26,South,180,2.9,3.8,81,0.00,,,0.02,LWC V1.12 B30,2013-11-13 23:08:00,
2013-11-13 15:13:00,44.1,38.6,30.26,South,180,3.1,3.1,81,0.00,,,0.02,LWC V1.12 B30,2013-11-13 23:13:00,
2013-11-13 15:18:00,44.2,39.1,30.25,SSW,202,3.8,4.0,82,0.00,,,0.02,LWC V1.12 B30,2013-11-13 23:18:00,
2013-11-13 15:23:00,44.2,39.1,30.25,SE,135,1.8,6.7,82,0.00,,,0.02,LWC V1.12 B30,2013-11-13 23:23:00,
2013-11-13 15:28:00,44.2,39.1,30.25,South,180,3.6,4.5,82,0.00,,,0.02,LWC V1.12 B30,2013-11-13 23:28:00,
2013-11-13 15:33:00,43.9,38.7,30.25,SSE,157,3.8,3.8,82,0.00,,,0.02,LWC V1.12 B30,2013-11-13 23:33:00,
2013-11-13 15:38:00,43.7,38.6,30.25,SE,135,1.3,2.5,82,0.00,,,0.02,LWC V1.12 B30,2013-11-13 23:38:00,
2013-11-13 15:43:00,43.7,38.6,30.25,ENE,67,0.0,0.0,82,0.00,,,0.02,LWC V1.12 B30,2013-11-13 23:43:00,
2013-11-13 15:48:00,43.7,38.6,30.26,ESE,112,0.0,0.0,82,0.00,,,0.02,LWC V1.12 B30,2013-11-13 23:48:00,
2013-11-13 15:54:00,43.5,38.4,30.26,East,90,0.0,0.0,82,0.00,,,0.02,LWC V1.12 B30,2013-11-13 23:54:00,
2013-11-13 15:59:00,43.5,38.4,30.26,East,90,0.0,0.0,82,0.00,,,0.02,LWC V1.12 B30,2013-11-13 23:59:00,
2013-11-13 16:04:00,43.5,38.4,30.26,East,90,0.0,0.0,82,0.00,,,0.02,LWC V1.12 B30,2013-11-14 00:04:00,
2013-11-13 16:09:00,43.5,38.4,30.27,East,90,0.0,0.0,82,0.00,,,0.02,LWC V1.12 B30,2013-11-14 00:09:00,
2013-11-13 16:14:00,43.5,38.4,30.27,ENE,67,0.0,0.0,82,0.00,,,0.02,LWC V1.12 B30,2013-11-14 00:14:00,
2013-11-13 16:19:00,43.3,38.2,30.27,ENE,67,0.0,0.0,82,0.00,,,0.02,LWC V1.12 B30,2013-11-14 00:19:00,
2013-11-13 16:24:00,43.3,38.2,30.28,ENE,67,0.0,0.0,82,0.00,,,0.02,LWC V1.12 B30,2013-11-14 00:24:00,
2013-11-13 16:29:00,43.3,38.5,30.28,ENE,67,0.0,0.0,83,0.00,,,0.02,LWC V1.12 B30,2013-11-14 00:29:00,
2013-11-13 16:34:00,43.3,38.5,30.27,ENE,67,0.0,0.0,83,0.00,,,0.02,LWC V1.12 B30,2013-11-14 00:34:00,
2013-11-13 16:39:00,43.3,38.5,30.28,ENE,67,0.0,0.0,83,0.00,,,0.02,LWC V1.12 B30,2013-11-14 00:39:00,
2013-11-13 16:45:00,43.3,38.5,30.28,ENE,67,0.0,0.0,83,0.00,,,0.02,LWC V1.12 B30,2013-11-14 00:45:00,
2013-11-13 16:50:00,43.2,38.3,30.28,ENE,67,0.0,0.0,83,0.00,,,0.02,LWC V1.12 B30,2013-11-14 00:50:00,
2013-11-13 16:55:00,43.2,38.3,30.28,ENE,67,0.0,0.0,83,0.00,,,0.02,LWC V1.12 B30,2013-11-14 00:55:00,
2013-11-13 17:00:00,43.2,38.3,30.28,ENE,67,0.0,0.0,83,0.00,,,0.02,LWC V1.12 B30,2013-11-14 01:00:00,
2013-11-13 17:05:00,43.2,38.3,30.28,ENE,67,0.0,0.0,83,0.00,,,0.02,LWC V1.12 B30,2013-11-14 01:05:00,
2013-11-13 17:10:00,43.2,38.3,30.27,ENE,67,0.0,0.0,83,0.00,,,0.02,LWC V1.12 B30,2013-11-14 01:10:00,
2013-11-13 17:15:00,43.3,38.5,30.27,ENE,67,0.0,0.0,83,0.00,,,0.02,LWC V1.12 B30,2013-11-14 01:15:00,
2013-11-13 17:20:00,43.3,38.5,30.27,ENE,67,0.0,0.0,83,0.00,,,0.02,LWC V1.12 B30,2013-11-14 01:20:00,
2013-11-13 17:25:00,43.3,38.5,30.27,NE,45,0.0,0.0,83,0.00,,,0.02,LWC V1.12 B30,2013-11-14 01:25:00,
2013-11-13 17:30:00,43.2,38.3,30.27,NE,45,0.0,0.0,83,0.00,,,0.02,LWC V1.12 B30,2013-11-14 01:30:00,
2013-11-13 17:35:00,43.2,38.3,30.27,NE,45,0.0,0.0,83,0.00,,,0.02,LWC V1.12 B30,2013-11-14 01:35:00,
2013-11-13 17:40:00,43.2,38.3,30.27,NE,45,0.0,0.0,83,0.00,,,0.02,LWC V1.12 B30,2013-11-14 01:40:00,
2013-11-13 17:45:00,43.2,38.3,30.27,ENE,67,0.0,0.0,83,0.00,,,0.02,LWC V1.12 B30,2013-11-14 01:45:00,
2013-11-13 17:50:00,43.0,38.1,30.27,ENE,67,0.0,0.0,83,0.00,,,0.02,LWC V1.12 B30,2013-11-14 01:50:00,
2013-11-13 17:55:00,43.0,38.1,30.27,ENE,67,0.0,0.0,83,0.00,,,0.02,LWC V1.12 B30,2013-11-14 01:55:00,
2013-11-13 18:00:00,43.0,38.1,30.28,NE,45,0.0,0.0,83,0.00,,,0.02,LWC V1.12 B30,2013-11-14 02:00:00,
2013-11-13 18:05:00,43.0,38.1,30.28,ENE,67,0.0,0.0,83,0.00,,,0.02,LWC V1.12 B30,2013-11-14 02:05:00,
2013-11-13 18:10:00,43.0,38.1,30.28,ENE,67,0.0,0.0,83,0.00,,,0.02,LWC V1.12 B30,2013-11-14 02:10:00,
2013-11-13 18:15:00,43.0,38.1,30.27,East,90,0.0,0.0,83,0.00,,,0.02,LWC V1.12 B30,2013-11-14 02:15:00,
2013-11-13 18:20:00,43.0,38.1,30.28,East,90,0.0,0.0,83,0.00,,,0.02,LWC V1.12 B30,2013-11-14 02:20:00,
2013-11-13 18:25:00,43.0,38.1,30.27,East,90,0.0,0.0,83,0.00,,,0.02,LWC V1.12 B30,2013-11-14 02:25:00,
2013-11-13 18:30:00,42.6,37.8,30.27,East,90,0.0,0.0,83,0.00,,,0.02,LWC V1.12 B30,2013-11-14 02:30:00,
2013-11-13 18:35:00,42.6,37.8,30.27,East,90,0.0,0.0,83,0.00,,,0.02,LWC V1.12 B30,2013-11-14 02:35:00,
2013-11-13 18:40:00,42.6,37.8,30.27,East,90,0.0,0.0,83,0.00,,,0.02,LWC V1.12 B30,2013-11-14 02:40:00,
2013-11-13 18:45:00,42.6,37.8,30.27,East,90,0.0,0.0,83,0.00,,,0.02,LWC V1.12 B30,2013-11-14 02:45:00,
2013-11-13 18:50:00,42.4,37.6,30.27,ESE,112,0.0,0.0,83,0.00,,,0.02,LWC V1.12 B30,2013-11-14 02:50:00,
2013-11-13 18:55:00,42.3,37.4,30.27,ESE,112,0.0,0.0,83,0.00,,,0.02,LWC V1.12 B30,2013-11-14 02:55:00,
2013-11-13 19:00:00,42.1,37.2,30.27,ESE,112,0.0,0.0,83,0.00,,,0.02,LWC V1.12 B30,2013-11-14 03:00:00,
2013-11-13 19:05:00,41.7,36.9,30.27,SE,135,0.0,0.0,83,0.00,,,0.02,LWC V1.12 B30,2013-11-14 03:05:00,
2013-11-13 19:10:00,41.5,36.7,30.26,SE,135,0.0,2.5,83,0.00,,,0.02,LWC V1.12 B30,2013-11-14 03:10:00,
2013-11-13 19:15:00,41.2,36.3,30.27,ESE,112,0.0,1.6,83,0.00,,,0.02,LWC V1.12 B30,2013-11-14 03:15:00,
2013-11-13 19:20:00,40.8,36.0,30.26,SE,135,0.0,1.6,83,0.00,,,0.02,LWC V1.12 B30,2013-11-14 03:20:00,
2013-11-13 19:25:00,40.5,35.7,30.26,ESE,112,0.0,0.0,83,0.00,,,0.02,LWC V1.12 B30,2013-11-14 03:25:00,
2013-11-13 19:30:00,39.9,35.2,30.26,SE,135,0.0,1.8,83,0.00,,,0.02,LWC V1.12 B30,2013-11-14 03:30:00,
2013-11-13 19:35:00,39.7,35.3,30.26,SE,135,0.0,2.7,84,0.00,,,0.02,LWC V1.12 B30,2013-11-14 03:35:00,
2013-11-13 19:40:00,39.6,35.1,30.26,SE,135,0.0,1.6,84,0.00,,,0.02,LWC V1.12 B30,2013-11-14 03:40:00,
2013-11-13 19:45:00,39.4,34.9,30.26,East,90,0.0,1.8,84,0.00,,,0.02,LWC V1.12 B30,2013-11-14 03:45:00,
2013-11-13 19:50:00,39.4,34.9,30.25,SE,135,0.0,2.0,84,0.00,,,0.02,LWC V1.12 B30,2013-11-14 03:50:00,
2013-11-13 19:55:00,39.4,35.2,30.25,SE,135,0.0,2.0,85,0.00,,,0.02,LWC V1.12 B30,2013-11-14 03:55:00,
2013-11-13 20:00:00,39.2,35.2,30.25,SE,135,2.5,2.5,85,0.00,,,0.02,LWC V1.12 B30,2013-11-14 04:00:00,
2013-11-13 20:05:00,39.0,34.9,30.25,SE,135,0.0,1.8,85,0.00,,,0.02,LWC V1.12 B30,2013-11-14 04:05:00,
2013-11-13 20:10:00,38.8,34.7,30.25,SE,135,2.2,3.1,85,0.00,,,0.02,LWC V1.12 B30,2013-11-14 04:10:00,
2013-11-13 20:16:00,38.8,34.7,30.25,SE,135,1.1,3.1,85,0.00,,,0.02,LWC V1.12 B30,2013-11-14 04:16:00,
2013-11-13 20:21:00,38.7,34.5,30.26,SE,135,0.7,3.8,85,0.00,,,0.02,LWC V1.12 B30,2013-11-14 04:21:00,
2013-11-13 20:26:00,38.5,34.3,30.25,SE,135,0.0,2.2,85,0.00,,,0.02,LWC V1.12 B30,2013-11-14 04:26:00,
2013-11-13 20:32:00,38.5,34.6,30.25,SE,135,0.0,0.0,86,0.00,,,0.02,LWC V1.12 B30,2013-11-14 04:32:00,
2013-11-13 20:37:00,38.3,34.4,30.25,SSE,157,0.0,0.0,86,0.00,,,0.02,LWC V1.12 B30,2013-11-14 04:37:00,
2013-11-13 20:42:00,38.3,34.4,30.25,SE,135,1.6,1.8,86,0.00,,,0.02,LWC V1.12 B30,2013-11-14 04:42:00,
2013-11-13 20:47:00,38.1,34.3,30.25,SE,135,2.0,2.2,86,0.00,,,0.02,LWC V1.12 B30,2013-11-14 04:47:00,
2013-11-13 20:52:00,38.1,34.3,30.25,ESE,112,2.2,2.2,86,0.00,,,0.02,LWC V1.12 B30,2013-11-14 04:52:00,
2013-11-13 20:57:00,38.1,34.3,30.25,SE,135,2.5,2.5,86,0.00,,,0.02,LWC V1.12 B30,2013-11-14 04:57:00,
2013-11-13 21:01:00,38.1,34.6,30.25,SE,135,2.2,2.7,87,0.00,,,0.02,LWC V1.12 B30,2013-11-14 05:01:00,
2013-11-13 21:02:00,38.3,34.7,30.25,SE,135,0.9,2.5,87,0.00,,,0.02,LWC V1.12 B30,2013-11-14 05:02:00,
2013-11-13 21:03:00,38.1,34.6,30.25,SE,135,1.6,2.0,87,0.00,,,0.02,LWC V1.12 B30,2013-11-14 05:03:00,
2013-11-13 21:08:00,38.3,34.7,30.24,SE,135,2.0,2.5,87,0.00,,,0.02,LWC V1.12 B30,2013-11-14 05:08:00,
2013-11-13 21:13:00,38.5,34.9,30.24,SE,135,2.2,2.9,87,0.00,,,0.02,LWC V1.12 B30,2013-11-14 05:13:00,
2013-11-13 21:18:00,38.3,34.7,30.24,ESE,112,0.0,0.0,87,0.00,,,0.02,LWC V1.12 B30,2013-11-14 05:18:00,
2013-11-13 21:23:00,38.5,34.9,30.24,SE,135,0.0,3.6,87,0.00,,,0.02,LWC V1.12 B30,2013-11-14 05:23:00,
2013-11-13 21:29:00,38.5,34.9,30.24,SSE,157,2.0,2.0,87,0.00,,,0.02,LWC V1.12 B30,2013-11-14 05:29:00,
2013-11-13 21:34:00,38.5,34.9,30.24,SE,135,0.7,2.0,87,0.00,,,0.02,LWC V1.12 B30,2013-11-14 05:34:00,
2013-11-13 21:39:00,38.5,34.9,30.23,SSE,157,0.0,2.0,87,0.00,,,0.02,LWC V1.12 B30,2013-11-14 05:39:00,
2013-11-13 21:44:00,38.7,35.1,30.22,SSE,157,0.0,1.3,87,0.00,,,0.02,LWC V1.12 B30,2013-11-14 05:44:00,
2013-11-13 21:49:00,38.8,35.3,30.23,SE,135,0.0,0.0,87,0.00,,,0.02,LWC V1.12 B30,2013-11-14 05:49:00,
2013-11-13 21:55:00,39.0,35.5,30.23,SE,135,0.0,0.0,87,0.00,,,0.02,LWC V1.12 B30,2013-11-14 05:55:00,
2013-11-13 22:00:00,39.0,35.5,30.23,SE,135,0.0,0.0,87,0.00,,,0.02,LWC V1.12 B30,2013-11-14 06:00:00,
2013-11-13 22:05:00,39.4,35.8,30.23,SE,135,0.0,0.0,87,0.00,,,0.02,LWC V1.12 B30,2013-11-14 06:05:00,
2013-11-13 22:10:00,39.4,36.1,30.23,SE,135,0.0,0.0,88,0.00,,,0.02,LWC V1.12 B30,2013-11-14 06:10:00,
2013-11-13 22:15:00,39.6,36.3,30.22,SE,135,0.0,0.0,88,0.00,,,0.02,LWC V1.12 B30,2013-11-14 06:15:00,
2013-11-13 22:20:00,39.7,36.4,30.22,SE,135,0.0,0.0,88,0.00,,,0.02,LWC V1.12 B30,2013-11-14 06:20:00,
2013-11-13 22:25:00,39.7,36.4,30.22,SE,135,0.0,0.0,88,0.00,,,0.02,LWC V1.12 B30,2013-11-14 06:25:00,
2013-11-13 22:30:00,39.7,36.4,30.23,SE,135,0.0,0.0,88,0.00,,,0.02,LWC V1.12 B30,2013-11-14 06:30:00,
2013-11-13 22:35:00,39.9,36.6,30.22,SE,135,0.0,0.0,88,0.00,,,0.02,LWC V1.12 B30,2013-11-14 06:35:00,
2013-11-13 22:40:00,39.9,36.6,30.22,SE,135,0.0,0.0,88,0.00,,,0.02,LWC V1.12 B30,2013-11-14 06:40:00,
2013-11-13 22:45:00,39.9,36.6,30.22,SE,135,0.0,0.0,88,0.00,,,0.02,LWC V1.12 B30,2013-11-14 06:45:00,
2013-11-13 22:50:00,39.9,36.6,30.22,SE,135,0.0,0.0,88,0.00,,,0.02,LWC V1.12 B30,2013-11-14 06:50:00,
2013-11-13 22:55:00,39.9,36.6,30.22,South,180,0.0,0.0,88,0.00,,,0.02,LWC V1.12 B30,2013-11-14 06:55:00,
2013-11-13 23:00:00,39.9,36.6,30.22,South,180,0.0,0.0,88,0.00,,,0.02,LWC V1.12 B30,2013-11-14 07:00:00,
2013-11-13 23:05:00,39.9,36.6,30.22,SSE,157,0.0,0.0,88,0.00,,,0.02,LWC V1.12 B30,2013-11-14 07:05:00,
2013-11-13 23:10:00,39.9,36.6,30.22,SE,135,0.0,0.0,88,0.00,,,0.02,LWC V1.12 B30,2013-11-14 07:10:00,
2013-11-13 23:15:00,39.9,36.6,30.21,ESE,112,0.0,0.0,88,0.00,,,0.02,LWC V1.12 B30,2013-11-14 07:15:00,
2013-11-13 23:20:00,40.1,36.8,30.21,SSE,157,0.0,0.0,88,0.00,,,0.02,LWC V1.12 B30,2013-11-14 07:20:00,
2013-11-13 23:25:00,39.9,36.6,30.21,South,180,0.0,0.0,88,0.00,,,0.02,LWC V1.12 B30,2013-11-14 07:25:00,
2013-11-13 23:31:00,39.9,36.6,30.20,South,180,0.0,0.0,88,0.00,,,0.02,LWC V1.12 B30,2013-11-14 07:31:00,
2013-11-13 23:36:00,39.9,36.3,30.20,South,180,0.0,0.0,87,0.00,,,0.02,LWC V1.12 B30,2013-11-14 07:36:00,
2013-11-13 23:41:00,39.7,36.2,30.20,South,180,0.0,0.0,87,0.00,,,0.02,LWC V1.12 B30,2013-11-14 07:41:00,
2013-11-13 23:46:00,39.7,36.2,30.19,SE,135,0.0,0.0,87,0.00,,,0.02,LWC V1.12 B30,2013-11-14 07:46:00,
2013-11-13 23:51:00,39.6,36.0,30.19,SSE,157,0.0,0.0,87,0.00,,,0.02,LWC V1.12 B30,2013-11-14 07:51:00,
2013-11-13 23:56:00,39.4,35.8,30.19,SSE,157,0.0,0.0,87,0.00,,,0.02,LWC V1.12 B30,2013-11-14 07:56:00,